sensor_id;sensor_type;location;lat;lon;timestamp;pressure;altitude;pressure_sealevel;temperature;humidity
6224;BME280;3145;42.726;23.342;2023-04-27T00:00:14;72661.63;;;-142.70;45.27
6224;BME280;3145;42.726;23.342;2023-04-27T00:02:41;72657.59;;;-142.70;44.50
6224;BME280;3145;42.726;23.342;2023-04-27T00:05:08;72671.69;;;-142.70;45.16
6224;BME280;3145;42.726;23.342;2023-04-27T00:07:37;72675.72;;;-142.70;45.58
6224;BME280;3145;42.726;23.342;2023-04-27T00:10:04;72689.84;;;-142.70;45.24
6224;BME280;3145;42.726;23.342;2023-04-27T00:12:31;72689.84;;;-142.70;45.08
6224;BME280;3145;42.726;23.342;2023-04-27T00:14:58;72689.84;;;-142.70;44.82
6224;BME280;3145;42.726;23.342;2023-04-27T00:17:25;72693.84;;;-142.70;45.59
6224;BME280;3145;42.726;23.342;2023-04-27T00:19:51;72689.84;;;-142.70;45.62
6224;BME280;3145;42.726;23.342;2023-04-27T00:22:18;72693.84;;;-142.70;44.89
6224;BME280;3145;42.726;23.342;2023-04-27T00:24:47;72712.00;;;-142.70;44.93
6224;BME280;3145;42.726;23.342;2023-04-27T00:27:13;72722.06;;;-142.70;45.36
6224;BME280;3145;42.726;23.342;2023-04-27T00:29:40;72722.06;;;-142.70;45.43
6224;BME280;3145;42.726;23.342;2023-04-27T00:32:08;72738.19;;;-142.70;45.29
6224;BME280;3145;42.726;23.342;2023-04-27T00:34:34;72750.28;;;-142.70;45.58
6224;BME280;3145;42.726;23.342;2023-04-27T00:37:01;72748.25;;;-142.70;45.96
6224;BME280;3145;42.726;23.342;2023-04-27T00:39:28;72756.31;;;-142.70;45.88
6224;BME280;3145;42.726;23.342;2023-04-27T00:41:56;72762.34;;;-142.70;46.29
6224;BME280;3145;42.726;23.342;2023-04-27T00:44:23;72758.31;;;-142.70;46.94
6224;BME280;3145;42.726;23.342;2023-04-27T00:46:50;72754.28;;;-142.70;46.86
6224;BME280;3145;42.726;23.342;2023-04-27T00:49:17;72750.28;;;-142.70;46.21
6224;BME280;3145;42.726;23.342;2023-04-27T00:51:45;72758.31;;;-142.70;46.59
6224;BME280;3145;42.726;23.342;2023-04-27T00:54:12;72766.38;;;-142.70;46.62
6224;BME280;3145;42.726;23.342;2023-04-27T00:56:40;72778.47;;;-142.70;46.17
6224;BME280;3145;42.726;23.342;2023-04-27T00:59:08;72782.50;;;-142.70;46.41
6224;BME280;3145;42.726;23.342;2023-04-27T01:01:35;72784.53;;;-142.70;48.00
6224;BME280;3145;42.726;23.342;2023-04-27T01:04:02;72778.47;;;-142.70;47.97
6224;BME280;3145;42.726;23.342;2023-04-27T01:06:28;72772.44;;;-142.70;48.04
6224;BME280;3145;42.726;23.342;2023-04-27T01:08:56;72784.53;;;-142.70;46.81
6224;BME280;3145;42.726;23.342;2023-04-27T01:11:22;72804.66;;;-142.70;46.88
6224;BME280;3145;42.726;23.342;2023-04-27T01:13:50;72804.66;;;-142.70;46.96
6224;BME280;3145;42.726;23.342;2023-04-27T01:16:18;72802.66;;;-142.70;47.44
6224;BME280;3145;42.726;23.342;2023-04-27T01:18:45;72800.63;;;-142.70;48.02
6224;BME280;3145;42.726;23.342;2023-04-27T01:21:12;72806.69;;;-142.70;47.94
6224;BME280;3145;42.726;23.342;2023-04-27T01:23:40;72796.59;;;-142.70;47.72
6224;BME280;3145;42.726;23.342;2023-04-27T01:26:07;72798.63;;;-142.70;48.66
6224;BME280;3145;42.726;23.342;2023-04-27T01:28:36;72802.66;;;-142.70;47.58
6224;BME280;3145;42.726;23.342;2023-04-27T01:31:02;72820.78;;;-142.70;47.89
6224;BME280;3145;42.726;23.342;2023-04-27T01:33:29;72830.84;;;-142.70;47.19
6224;BME280;3145;42.726;23.342;2023-04-27T01:35:56;72846.97;;;-142.70;47.16
6224;BME280;3145;42.726;23.342;2023-04-27T01:38:23;72855.03;;;-142.70;47.08
6224;BME280;3145;42.726;23.342;2023-04-27T01:40:51;72851.00;;;-142.70;48.00
6224;BME280;3145;42.726;23.342;2023-04-27T01:43:19;72857.03;;;-142.70;47.55
6224;BME280;3145;42.726;23.342;2023-04-27T01:45:46;72859.06;;;-142.70;47.56
6224;BME280;3145;42.726;23.342;2023-04-27T01:48:13;72875.19;;;-142.70;47.86
6224;BME280;3145;42.726;23.342;2023-04-27T01:50:40;72871.16;;;-142.70;47.64
6224;BME280;3145;42.726;23.342;2023-04-27T01:53:07;72873.16;;;-142.70;47.52
6224;BME280;3145;42.726;23.342;2023-04-27T01:55:34;72875.19;;;-142.70;47.23
6224;BME280;3145;42.726;23.342;2023-04-27T01:58:02;72885.25;;;-142.70;47.84
6224;BME280;3145;42.726;23.342;2023-04-27T02:00:29;72877.19;;;-142.70;48.12
6224;BME280;3145;42.726;23.342;2023-04-27T02:02:56;72879.22;;;-142.70;48.79
6224;BME280;3145;42.726;23.342;2023-04-27T02:05:24;72875.19;;;-142.70;47.97
6224;BME280;3145;42.726;23.342;2023-04-27T02:07:51;72883.25;;;-142.70;48.10
6224;BME280;3145;42.726;23.342;2023-04-27T02:10:18;72885.25;;;-142.70;49.12
6224;BME280;3145;42.726;23.342;2023-04-27T02:12:46;72887.25;;;-142.70;49.23
6224;BME280;3145;42.726;23.342;2023-04-27T02:15:14;72893.31;;;-142.70;47.42
6224;BME280;3145;42.726;23.342;2023-04-27T02:17:41;72891.28;;;-142.70;47.92
6224;BME280;3145;42.726;23.342;2023-04-27T02:20:09;72903.38;;;-142.70;47.84
6224;BME280;3145;42.726;23.342;2023-04-27T02:22:39;72907.41;;;-142.70;47.90
6224;BME280;3145;42.726;23.342;2023-04-27T02:25:08;72907.41;;;-142.70;47.97
6224;BME280;3145;42.726;23.342;2023-04-27T02:27:36;72919.50;;;-142.70;47.83
6224;BME280;3145;42.726;23.342;2023-04-27T02:30:04;72931.59;;;-142.70;48.14
6224;BME280;3145;42.726;23.342;2023-04-27T02:32:32;72949.72;;;-142.70;47.86
6224;BME280;3145;42.726;23.342;2023-04-27T02:34:59;72945.69;;;-142.70;48.93
6224;BME280;3145;42.726;23.342;2023-04-27T02:37:26;72947.72;;;-142.70;48.59
6224;BME280;3145;42.726;23.342;2023-04-27T02:39:53;72943.69;;;-142.70;48.37
6224;BME280;3145;42.726;23.342;2023-04-27T02:42:20;72947.72;;;-142.70;48.35
6224;BME280;3145;42.726;23.342;2023-04-27T02:44:47;72959.78;;;-142.70;47.73
6224;BME280;3145;42.726;23.342;2023-04-27T02:47:13;72961.81;;;-142.70;47.85
6224;BME280;3145;42.726;23.342;2023-04-27T02:49:42;72955.78;;;-142.70;48.55
6224;BME280;3145;42.726;23.342;2023-04-27T02:52:08;72959.78;;;-142.70;47.74
6224;BME280;3145;42.726;23.342;2023-04-27T02:54:35;72963.81;;;-142.70;47.49
6224;BME280;3145;42.726;23.342;2023-04-27T02:57:02;72965.84;;;-142.70;48.20
6224;BME280;3145;42.726;23.342;2023-04-27T02:59:29;72975.91;;;-142.70;47.83
6224;BME280;3145;42.726;23.342;2023-04-27T03:01:55;72983.97;;;-142.70;48.17
6224;BME280;3145;42.726;23.342;2023-04-27T03:04:22;73010.16;;;-142.70;47.99
6224;BME280;3145;42.726;23.342;2023-04-27T03:06:50;73008.16;;;-142.70;47.80
6224;BME280;3145;42.726;23.342;2023-04-27T03:09:17;73016.22;;;-142.70;48.19
6224;BME280;3145;42.726;23.342;2023-04-27T03:11:43;73028.31;;;-142.70;48.27
6224;BME280;3145;42.726;23.342;2023-04-27T03:14:10;73030.31;;;-142.70;48.42
6224;BME280;3145;42.726;23.342;2023-04-27T03:16:38;73016.22;;;-142.70;49.16
6224;BME280;3145;42.726;23.342;2023-04-27T03:19:04;73034.34;;;-142.70;48.70
6224;BME280;3145;42.726;23.342;2023-04-27T03:21:31;73020.25;;;-142.70;48.95
6224;BME280;3145;42.726;23.342;2023-04-27T03:23:59;73016.22;;;-142.70;50.22
6224;BME280;3145;42.726;23.342;2023-04-27T03:26:26;73042.41;;;-142.70;48.80
6224;BME280;3145;42.726;23.342;2023-04-27T03:28:53;73024.28;;;-142.70;50.33
6224;BME280;3145;42.726;23.342;2023-04-27T03:31:20;73030.31;;;-142.70;49.02
6224;BME280;3145;42.726;23.342;2023-04-27T03:33:46;73028.31;;;-142.70;49.98
6224;BME280;3145;42.726;23.342;2023-04-27T03:36:13;73026.28;;;-142.70;49.63
6224;BME280;3145;42.726;23.342;2023-04-27T03:38:40;73044.41;;;-142.70;48.85
6224;BME280;3145;42.726;23.342;2023-04-27T03:41:08;73042.41;;;-142.70;49.19
6224;BME280;3145;42.726;23.342;2023-04-27T03:43:35;73046.44;;;-142.70;49.19
6224;BME280;3145;42.726;23.342;2023-04-27T03:46:02;73048.44;;;-142.70;49.59
6224;BME280;3145;42.726;23.342;2023-04-27T03:48:29;73054.50;;;-142.70;49.09
6224;BME280;3145;42.726;23.342;2023-04-27T03:50:55;73048.44;;;-142.70;49.35
6224;BME280;3145;42.726;23.342;2023-04-27T03:53:22;73044.41;;;-142.70;48.89
6224;BME280;3145;42.726;23.342;2023-04-27T03:55:49;73032.31;;;-142.70;49.94
6224;BME280;3145;42.726;23.342;2023-04-27T03:58:17;73040.38;;;-142.70;48.85
6224;BME280;3145;42.726;23.342;2023-04-27T04:00:44;73042.41;;;-142.70;48.47
6224;BME280;3145;42.726;23.342;2023-04-27T04:03:10;73052.47;;;-142.70;49.30
6224;BME280;3145;42.726;23.342;2023-04-27T04:05:37;73052.47;;;-142.70;48.54
6224;BME280;3145;42.726;23.342;2023-04-27T04:08:04;73040.38;;;-142.70;49.10
6224;BME280;3145;42.726;23.342;2023-04-27T04:10:31;73066.59;;;-142.70;48.53
6224;BME280;3145;42.726;23.342;2023-04-27T04:12:57;73072.63;;;-142.70;48.45
6224;BME280;3145;42.726;23.342;2023-04-27T04:15:25;73060.53;;;-142.70;47.91
6224;BME280;3145;42.726;23.342;2023-04-27T04:17:52;73078.66;;;-142.70;48.37
6224;BME280;3145;42.726;23.342;2023-04-27T04:20:19;73096.81;;;-142.70;48.82
6224;BME280;3145;42.726;23.342;2023-04-27T04:22:46;73076.66;;;-142.70;48.57
6224;BME280;3145;42.726;23.342;2023-04-27T04:25:13;73080.69;;;-142.70;48.61
6224;BME280;3145;42.726;23.342;2023-04-27T04:27:40;73058.53;;;-142.70;48.38
6224;BME280;3145;42.726;23.342;2023-04-27T04:30:07;73024.28;;;-142.70;48.10
6224;BME280;3145;42.726;23.342;2023-04-27T04:32:36;72935.63;;;-142.70;47.10
6224;BME280;3145;42.726;23.342;2023-04-27T04:35:03;72887.25;;;-142.70;46.58
6224;BME280;3145;42.726;23.342;2023-04-27T04:37:32;72830.84;;;-142.70;45.78
6224;BME280;3145;42.726;23.342;2023-04-27T04:39:59;72754.28;;;-142.70;44.75
6224;BME280;3145;42.726;23.342;2023-04-27T04:42:31;72695.88;;;-142.70;43.17
6224;BME280;3145;42.726;23.342;2023-04-27T04:44:58;72647.53;;;-142.70;47.44
6224;BME280;3145;42.726;23.342;2023-04-27T04:47:25;72615.28;;;-142.70;42.91
6224;BME280;3145;42.726;23.342;2023-04-27T04:49:53;72621.34;;;-142.70;42.05
6224;BME280;3145;42.726;23.342;2023-04-27T04:52:21;72619.31;;;-142.70;41.28
6224;BME280;3145;42.726;23.342;2023-04-27T04:54:50;72597.16;;;-142.70;40.77
6224;BME280;3145;42.726;23.342;2023-04-27T04:57:17;72568.97;;;-142.70;40.26
6224;BME280;3145;42.726;23.342;2023-04-27T04:59:44;72546.78;;;-142.70;39.79
6224;BME280;3145;42.726;23.342;2023-04-27T05:02:11;72496.44;;;-142.70;39.68
6224;BME280;3145;42.726;23.342;2023-04-27T05:04:38;72472.25;;;-142.70;38.80
6224;BME280;3145;42.726;23.342;2023-04-27T05:07:06;72492.41;;;-142.70;39.18
6224;BME280;3145;42.726;23.342;2023-04-27T05:09:32;72464.19;;;-142.70;38.48
6224;BME280;3145;42.726;23.342;2023-04-27T05:12:00;72500.47;;;-142.70;38.75
6224;BME280;3145;42.726;23.342;2023-04-27T05:14:27;72494.41;;;-142.70;38.97
6224;BME280;3145;42.726;23.342;2023-04-27T05:16:54;72480.31;;;-142.70;39.71
6224;BME280;3145;42.726;23.342;2023-04-27T05:19:21;72436.00;;;-142.70;38.75
6224;BME280;3145;42.726;23.342;2023-04-27T05:21:47;72387.66;;;-142.70;39.09
6224;BME280;3145;42.726;23.342;2023-04-27T05:24:16;72327.22;;;-142.70;37.47
6224;BME280;3145;42.726;23.342;2023-04-27T05:26:43;72268.81;;;-142.70;36.59
6224;BME280;3145;42.726;23.342;2023-04-27T05:29:10;72278.88;;;-142.70;36.51
6224;BME280;3145;42.726;23.342;2023-04-27T05:31:36;72305.06;;;-142.70;36.71
6224;BME280;3145;42.726;23.342;2023-04-27T05:34:03;72383.63;;;-142.70;36.86
6224;BME280;3145;42.726;23.342;2023-04-27T05:36:30;72409.81;;;-142.70;36.76
6224;BME280;3145;42.726;23.342;2023-04-27T05:38:57;72452.13;;;-142.70;37.42
6224;BME280;3145;42.726;23.342;2023-04-27T05:41:25;72500.47;;;-142.70;37.70
6224;BME280;3145;42.726;23.342;2023-04-27T05:43:52;72536.72;;;-142.70;38.65
6224;BME280;3145;42.726;23.342;2023-04-27T05:46:19;72532.69;;;-142.70;39.27
6224;BME280;3145;42.726;23.342;2023-04-27T05:48:46;72554.84;;;-142.70;39.21
6224;BME280;3145;42.726;23.342;2023-04-27T05:51:13;72546.78;;;-142.70;39.21
6224;BME280;3145;42.726;23.342;2023-04-27T05:53:39;72536.72;;;-142.70;39.80
6224;BME280;3145;42.726;23.342;2023-04-27T05:56:07;72532.69;;;-142.70;39.04
6224;BME280;3145;42.726;23.342;2023-04-27T05:58:37;72540.75;;;-142.70;39.24
6224;BME280;3145;42.726;23.342;2023-04-27T06:01:04;72540.75;;;-142.70;38.96
6224;BME280;3145;42.726;23.342;2023-04-27T06:03:30;72556.88;;;-142.70;39.36
6224;BME280;3145;42.726;23.342;2023-04-27T06:05:59;72544.78;;;-142.70;38.94
6224;BME280;3145;42.726;23.342;2023-04-27T06:08:26;72532.69;;;-142.70;39.20
6224;BME280;3145;42.726;23.342;2023-04-27T06:10:53;72508.53;;;-142.70;39.03
6224;BME280;3145;42.726;23.342;2023-04-27T06:13:20;72448.09;;;-142.70;38.44
6224;BME280;3145;42.726;23.342;2023-04-27T06:15:48;72423.91;;;-142.70;38.07
6224;BME280;3145;42.726;23.342;2023-04-27T06:18:15;72395.72;;;-142.70;37.86
6224;BME280;3145;42.726;23.342;2023-04-27T06:20:42;72399.75;;;-142.70;37.40
6224;BME280;3145;42.726;23.342;2023-04-27T06:23:09;72375.56;;;-142.70;37.17
6224;BME280;3145;42.726;23.342;2023-04-27T06:25:35;72335.28;;;-142.70;37.09
6224;BME280;3145;42.726;23.342;2023-04-27T06:28:04;72329.22;;;-142.70;37.00
6224;BME280;3145;42.726;23.342;2023-04-27T06:30:31;72238.59;;;-142.70;36.59
6224;BME280;3145;42.726;23.342;2023-04-27T06:32:59;72137.88;;;-142.70;35.39
6224;BME280;3145;42.726;23.342;2023-04-27T06:35:26;72119.75;;;-142.70;34.41
6224;BME280;3145;42.726;23.342;2023-04-27T06:37:52;72117.72;;;-142.70;33.67
6224;BME280;3145;42.726;23.342;2023-04-27T06:40:23;72147.94;;;-142.70;33.77
6224;BME280;3145;42.726;23.342;2023-04-27T06:42:50;72184.19;;;-142.70;33.97
6224;BME280;3145;42.726;23.342;2023-04-27T06:45:16;72141.91;;;-142.70;34.00
6224;BME280;3145;42.726;23.342;2023-04-27T06:47:44;72145.94;;;-142.70;33.47
6224;BME280;3145;42.726;23.342;2023-04-27T06:50:13;72154.00;;;-142.70;33.96
6224;BME280;3145;42.726;23.342;2023-04-27T06:52:39;72137.88;;;-142.70;33.42
6224;BME280;3145;42.726;23.342;2023-04-27T06:55:07;72085.50;;;-142.70;33.54
6224;BME280;3145;42.726;23.342;2023-04-27T06:57:33;72021.06;;;-142.70;32.99
6224;BME280;3145;42.726;23.342;2023-04-27T07:00:00;71978.75;;;-142.70;32.55
6224;BME280;3145;42.726;23.342;2023-04-27T07:02:27;71940.47;;;-142.70;33.50
6224;BME280;3145;42.726;23.342;2023-04-27T07:04:54;71900.19;;;-142.70;32.24
6224;BME280;3145;42.726;23.342;2023-04-27T07:07:22;71920.34;;;-142.70;31.88
6224;BME280;3145;42.726;23.342;2023-04-27T07:09:49;71976.75;;;-142.70;32.05
6224;BME280;3145;42.726;23.342;2023-04-27T07:12:16;71968.69;;;-142.70;32.81
6224;BME280;3145;42.726;23.342;2023-04-27T07:14:43;71900.19;;;-142.70;32.64
6224;BME280;3145;42.726;23.342;2023-04-27T07:17:09;71906.25;;;-142.70;32.23
6224;BME280;3145;42.726;23.342;2023-04-27T07:19:36;71892.16;;;-142.70;31.37
6224;BME280;3145;42.726;23.342;2023-04-27T07:22:03;71886.09;;;-142.70;31.58
6224;BME280;3145;42.726;23.342;2023-04-27T07:24:31;71851.84;;;-142.70;31.76
6224;BME280;3145;42.726;23.342;2023-04-27T07:26:58;71944.50;;;-142.70;32.59
6224;BME280;3145;42.726;23.342;2023-04-27T07:29:27;71867.97;;;-142.70;32.31
6224;BME280;3145;42.726;23.342;2023-04-27T07:31:54;71872.00;;;-142.70;31.65
6224;BME280;3145;42.726;23.342;2023-04-27T07:34:21;71843.81;;;-142.70;31.08
6224;BME280;3145;42.726;23.342;2023-04-27T07:36:48;71882.06;;;-142.70;31.10
6224;BME280;3145;42.726;23.342;2023-04-27T07:39:15;71793.44;;;-142.70;31.23
6224;BME280;3145;42.726;23.342;2023-04-27T07:41:43;71777.34;;;-142.70;31.07
6224;BME280;3145;42.726;23.342;2023-04-27T07:44:10;71751.16;;;-142.70;30.70
6224;BME280;3145;42.726;23.342;2023-04-27T07:46:36;71741.09;;;-142.70;29.82
6224;BME280;3145;42.726;23.342;2023-04-27T07:49:04;71714.91;;;-142.70;29.69
6224;BME280;3145;42.726;23.342;2023-04-27T07:51:30;71765.25;;;-142.70;29.67
6224;BME280;3145;42.726;23.342;2023-04-27T07:53:59;71759.22;;;-142.70;30.22
6224;BME280;3145;42.726;23.342;2023-04-27T07:56:26;71727.00;;;-142.70;29.79
6224;BME280;3145;42.726;23.342;2023-04-27T07:58:54;71745.13;;;-142.70;30.38
6224;BME280;3145;42.726;23.342;2023-04-27T08:01:21;71771.28;;;-142.70;31.02
6224;BME280;3145;42.726;23.342;2023-04-27T08:03:48;71743.09;;;-142.70;30.18
6224;BME280;3145;42.726;23.342;2023-04-27T08:06:15;71700.81;;;-142.70;29.89
6224;BME280;3145;42.726;23.342;2023-04-27T08:08:41;71660.53;;;-142.70;29.49
6224;BME280;3145;42.726;23.342;2023-04-27T08:11:08;71706.84;;;-142.70;30.13
6224;BME280;3145;42.726;23.342;2023-04-27T08:13:36;71666.56;;;-142.70;29.59
6224;BME280;3145;42.726;23.342;2023-04-27T08:16:04;71710.88;;;-142.70;29.85
6224;BME280;3145;42.726;23.342;2023-04-27T08:18:31;71680.66;;;-142.70;29.57
6224;BME280;3145;42.726;23.342;2023-04-27T08:20:58;71636.34;;;-142.70;29.54
6224;BME280;3145;42.726;23.342;2023-04-27T08:23:26;71600.09;;;-142.70;29.11
6224;BME280;3145;42.726;23.342;2023-04-27T08:25:53;71610.19;;;-142.70;29.43
6224;BME280;3145;42.726;23.342;2023-04-27T08:28:20;71598.09;;;-142.70;29.05
6224;BME280;3145;42.726;23.342;2023-04-27T08:30:47;71642.41;;;-142.70;29.02
6224;BME280;3145;42.726;23.342;2023-04-27T08:33:15;71652.47;;;-142.70;29.15
6224;BME280;3145;42.726;23.342;2023-04-27T08:35:42;71622.25;;;-142.70;29.76
6224;BME280;3145;42.726;23.342;2023-04-27T08:38:09;71622.25;;;-142.70;29.14
6224;BME280;3145;42.726;23.342;2023-04-27T08:40:41;71771.28;;;-142.70;29.58
6224;BME280;3145;42.726;23.342;2023-04-27T08:43:08;71696.78;;;-142.70;29.90
6224;BME280;3145;42.726;23.342;2023-04-27T08:45:35;71646.44;;;-142.70;29.32
6224;BME280;3145;42.726;23.342;2023-04-27T08:48:02;71630.31;;;-142.70;30.28
6224;BME280;3145;42.726;23.342;2023-04-27T08:50:30;71692.75;;;-142.70;29.42
6224;BME280;3145;42.726;23.342;2023-04-27T08:52:56;71710.88;;;-142.70;29.64
6224;BME280;3145;42.726;23.342;2023-04-27T08:55:24;71759.22;;;-142.70;29.94
6224;BME280;3145;42.726;23.342;2023-04-27T08:57:54;71741.09;;;-142.70;30.25
6224;BME280;3145;42.726;23.342;2023-04-27T09:00:23;71710.88;;;-142.70;30.37
6224;BME280;3145;42.726;23.342;2023-04-27T09:02:50;71741.09;;;-142.70;30.17
6224;BME280;3145;42.726;23.342;2023-04-27T09:05:17;71714.91;;;-142.70;30.15
6224;BME280;3145;42.726;23.342;2023-04-27T09:07:56;71650.44;;;-142.70;29.48
6224;BME280;3145;42.726;23.342;2023-04-27T09:10:23;71704.84;;;-142.70;30.00
6224;BME280;3145;42.726;23.342;2023-04-27T09:12:57;71682.69;;;-142.70;29.63
6224;BME280;3145;42.726;23.342;2023-04-27T09:15:25;71718.94;;;-142.70;29.06
6224;BME280;3145;42.726;23.342;2023-04-27T09:17:56;71795.47;;;-142.70;30.31
6224;BME280;3145;42.726;23.342;2023-04-27T09:20:23;71795.47;;;-142.70;30.79
6224;BME280;3145;42.726;23.342;2023-04-27T09:22:52;71739.06;;;-142.70;30.47
6224;BME280;3145;42.726;23.342;2023-04-27T09:25:28;71686.72;;;-142.70;30.09
6224;BME280;3145;42.726;23.342;2023-04-27T09:27:57;71622.25;;;-142.70;29.24
6224;BME280;3145;42.726;23.342;2023-04-27T09:30:24;71694.75;;;-142.70;29.92
6224;BME280;3145;42.726;23.342;2023-04-27T09:32:52;71727.00;;;-142.70;29.61
6224;BME280;3145;42.726;23.342;2023-04-27T09:35:22;71710.88;;;-142.70;29.85
6224;BME280;3145;42.726;23.342;2023-04-27T09:37:49;71753.16;;;-142.70;29.54
6224;BME280;3145;42.726;23.342;2023-04-27T09:40:18;71777.34;;;-142.70;30.01
6224;BME280;3145;42.726;23.342;2023-04-27T09:42:46;71678.66;;;-142.70;30.04
6224;BME280;3145;42.726;23.342;2023-04-27T09:45:14;71751.16;;;-142.70;29.69
6224;BME280;3145;42.726;23.342;2023-04-27T09:47:41;71799.50;;;-142.70;30.84
6224;BME280;3145;42.726;23.342;2023-04-27T09:50:12;71779.34;;;-142.70;31.23
6224;BME280;3145;42.726;23.342;2023-04-27T09:52:39;71813.59;;;-142.70;30.20
6224;BME280;3145;42.726;23.342;2023-04-27T09:55:08;71827.69;;;-142.70;30.07
6224;BME280;3145;42.726;23.342;2023-04-27T09:57:44;71859.91;;;-142.70;30.85
6224;BME280;3145;42.726;23.342;2023-04-27T10:00:31;71900.19;;;-142.70;31.22
6224;BME280;3145;42.726;23.342;2023-04-27T10:03:09;71898.19;;;-142.70;31.77
6224;BME280;3145;42.726;23.342;2023-04-27T10:05:57;71928.41;;;-142.70;31.98
6224;BME280;3145;42.726;23.342;2023-04-27T10:08:32;71894.16;;;-142.70;31.18
6224;BME280;3145;42.726;23.342;2023-04-27T10:10:59;71900.19;;;-142.70;30.78
6224;BME280;3145;42.726;23.342;2023-04-27T10:13:30;71900.19;;;-142.70;31.83
6224;BME280;3145;42.726;23.342;2023-04-27T10:16:13;71880.06;;;-142.70;31.41
6224;BME280;3145;42.726;23.342;2023-04-27T10:18:50;71849.84;;;-142.70;30.92
6224;BME280;3145;42.726;23.342;2023-04-27T10:21:17;71892.16;;;-142.70;30.40
6224;BME280;3145;42.726;23.342;2023-04-27T10:23:47;71900.19;;;-142.70;31.45
6224;BME280;3145;42.726;23.342;2023-04-27T10:26:25;71855.88;;;-142.70;31.06
6224;BME280;3145;42.726;23.342;2023-04-27T10:28:57;71823.66;;;-142.70;29.97
6224;BME280;3145;42.726;23.342;2023-04-27T10:31:28;71827.69;;;-142.70;29.98
6224;BME280;3145;42.726;23.342;2023-04-27T10:34:05;71831.72;;;-142.70;30.39
6224;BME280;3145;42.726;23.342;2023-04-27T10:36:36;71835.75;;;-142.70;29.96
6224;BME280;3145;42.726;23.342;2023-04-27T10:39:13;71837.75;;;-142.70;30.34
6224;BME280;3145;42.726;23.342;2023-04-27T10:41:48;71867.97;;;-142.70;30.37
6224;BME280;3145;42.726;23.342;2023-04-27T10:44:16;71825.69;;;-142.70;30.47
6224;BME280;3145;42.726;23.342;2023-04-27T10:46:52;71829.69;;;-142.70;29.89
6224;BME280;3145;42.726;23.342;2023-04-27T10:49:19;71823.66;;;-142.70;29.97
6224;BME280;3145;42.726;23.342;2023-04-27T10:51:46;71811.56;;;-142.70;30.17
6224;BME280;3145;42.726;23.342;2023-04-27T10:54:12;71809.56;;;-142.70;29.68
6224;BME280;3145;42.726;23.342;2023-04-27T10:56:40;71813.59;;;-142.70;29.95
6224;BME280;3145;42.726;23.342;2023-04-27T10:59:06;71811.56;;;-142.70;30.20
6224;BME280;3145;42.726;23.342;2023-04-27T11:01:33;71799.50;;;-142.70;30.04
6224;BME280;3145;42.726;23.342;2023-04-27T11:04:02;71831.72;;;-142.70;29.50
6224;BME280;3145;42.726;23.342;2023-04-27T11:06:30;71900.19;;;-142.70;30.42
6224;BME280;3145;42.726;23.342;2023-04-27T11:08:58;71884.09;;;-142.70;30.68
6224;BME280;3145;42.726;23.342;2023-04-27T11:11:25;71894.16;;;-142.70;30.55
6224;BME280;3145;42.726;23.342;2023-04-27T11:13:52;71896.16;;;-142.70;30.25
6224;BME280;3145;42.726;23.342;2023-04-27T11:16:20;71900.19;;;-142.70;31.10
6224;BME280;3145;42.726;23.342;2023-04-27T11:18:46;71874.00;;;-142.70;29.95
6224;BME280;3145;42.726;23.342;2023-04-27T11:21:17;71896.16;;;-142.70;30.60
6224;BME280;3145;42.726;23.342;2023-04-27T11:23:45;71892.16;;;-142.70;30.45
6224;BME280;3145;42.726;23.342;2023-04-27T11:26:13;71898.19;;;-142.70;30.50
6224;BME280;3145;42.726;23.342;2023-04-27T11:28:40;71928.41;;;-142.70;30.55
6224;BME280;3145;42.726;23.342;2023-04-27T11:31:07;71928.41;;;-142.70;30.86
6224;BME280;3145;42.726;23.342;2023-04-27T11:33:35;71918.31;;;-142.70;30.76
6224;BME280;3145;42.726;23.342;2023-04-27T11:36:16;71896.16;;;-142.70;30.83
6224;BME280;3145;42.726;23.342;2023-04-27T11:38:43;71876.03;;;-142.70;30.35
6224;BME280;3145;42.726;23.342;2023-04-27T11:41:09;71884.09;;;-142.70;30.25
6224;BME280;3145;42.726;23.342;2023-04-27T11:43:40;71888.13;;;-142.70;30.69
6224;BME280;3145;42.726;23.342;2023-04-27T11:46:07;71876.03;;;-142.70;30.67
6224;BME280;3145;42.726;23.342;2023-04-27T11:48:35;71876.03;;;-142.70;30.59
6224;BME280;3145;42.726;23.342;2023-04-27T11:51:03;71867.97;;;-142.70;30.42
6224;BME280;3145;42.726;23.342;2023-04-27T11:53:33;71867.97;;;-142.70;30.80
6224;BME280;3145;42.726;23.342;2023-04-27T11:56:01;71872.00;;;-142.70;30.25
6224;BME280;3145;42.726;23.342;2023-04-27T11:58:32;71888.13;;;-142.70;29.85
6224;BME280;3145;42.726;23.342;2023-04-27T12:00:59;71880.06;;;-142.70;29.97
6224;BME280;3145;42.726;23.342;2023-04-27T12:03:27;71884.09;;;-142.70;30.04
6224;BME280;3145;42.726;23.342;2023-04-27T12:05:54;71916.31;;;-142.70;30.67
6224;BME280;3145;42.726;23.342;2023-04-27T12:08:21;71888.13;;;-142.70;30.42
6224;BME280;3145;42.726;23.342;2023-04-27T12:10:50;71867.97;;;-142.70;30.36
6224;BME280;3145;42.726;23.342;2023-04-27T12:13:16;71863.94;;;-142.70;30.00
6224;BME280;3145;42.726;23.342;2023-04-27T12:15:43;71859.91;;;-142.70;30.06
6224;BME280;3145;42.726;23.342;2023-04-27T12:18:10;71872.00;;;-142.70;29.94
6224;BME280;3145;42.726;23.342;2023-04-27T12:20:36;71896.16;;;-142.70;29.96
6224;BME280;3145;42.726;23.342;2023-04-27T12:23:03;71892.16;;;-142.70;29.98
6224;BME280;3145;42.726;23.342;2023-04-27T12:25:30;71867.97;;;-142.70;30.44
6224;BME280;3145;42.726;23.342;2023-04-27T12:27:58;71863.94;;;-142.70;30.27
6224;BME280;3145;42.726;23.342;2023-04-27T12:30:26;71884.09;;;-142.70;30.22
6224;BME280;3145;42.726;23.342;2023-04-27T12:32:52;71888.13;;;-142.70;30.45
6224;BME280;3145;42.726;23.342;2023-04-27T12:35:19;71876.03;;;-142.70;30.47
6224;BME280;3145;42.726;23.342;2023-04-27T12:37:46;71831.72;;;-142.70;30.03
6224;BME280;3145;42.726;23.342;2023-04-27T12:40:14;71819.63;;;-142.70;30.34
6224;BME280;3145;42.726;23.342;2023-04-27T12:42:41;71811.56;;;-142.70;29.88
6224;BME280;3145;42.726;23.342;2023-04-27T12:45:09;71831.72;;;-142.70;29.95
6224;BME280;3145;42.726;23.342;2023-04-27T12:47:36;71819.63;;;-142.70;29.71
6224;BME280;3145;42.726;23.342;2023-04-27T12:50:05;71839.78;;;-142.70;30.25
6224;BME280;3145;42.726;23.342;2023-04-27T12:52:33;71843.81;;;-142.70;29.46